createdAt,value
2019-05-03T00:02:21.865Z,6.75
2019-05-03T00:04:53.959Z,6.69
2019-05-03T00:07:22.605Z,6.64
2019-05-03T00:09:52.047Z,6.65
2019-05-03T00:12:22.113Z,6.52
2019-05-03T00:14:55.104Z,6.45
2019-05-03T00:17:23.396Z,6.39
2019-05-03T00:19:52.735Z,6.33
2019-05-03T00:22:21.702Z,6.30
2019-05-03T00:25:04.618Z,6.29
2019-05-03T00:27:21.781Z,6.17
2019-05-03T00:29:52.387Z,6.09
2019-05-03T00:32:23.056Z,6.16
2019-05-03T00:34:54.085Z,6.12
2019-05-03T00:37:24.281Z,6.04
2019-05-03T00:40:04.365Z,5.87
2019-05-03T00:42:32.908Z,5.87
2019-05-03T00:45:02.280Z,5.85
2019-05-03T00:47:32.684Z,5.92
2019-05-03T00:50:02.831Z,5.80
2019-05-03T00:52:31.815Z,5.78
2019-05-03T00:55:02.283Z,5.73
2019-05-03T00:57:32.323Z,5.59
2019-05-03T01:00:02.286Z,5.56
2019-05-03T01:02:31.859Z,5.66
2019-05-03T01:05:02.857Z,5.65
2019-05-03T01:07:31.882Z,5.61
2019-05-03T01:10:02.556Z,5.56
2019-05-03T01:12:32.346Z,5.60
2019-05-03T01:15:03.382Z,5.70
2019-05-03T01:17:33.027Z,5.67
2019-05-03T01:20:02.752Z,5.70
2019-05-03T01:22:32.208Z,5.79
2019-05-03T01:25:02.844Z,5.77
2019-05-03T01:27:32.556Z,5.71
2019-05-03T01:30:02.857Z,5.67
2019-05-03T01:32:32.915Z,5.61
2019-05-03T01:35:03.198Z,5.59
2019-05-03T01:37:32.138Z,5.62
2019-05-03T01:40:02.231Z,5.57
2019-05-03T01:42:32.063Z,5.54
2019-05-03T01:45:01.800Z,5.49
2019-05-03T01:47:38.636Z,5.46
2019-05-03T01:50:22.884Z,5.41
2019-05-03T01:52:52.503Z,5.39
2019-05-03T01:55:22.961Z,5.41
2019-05-03T01:57:52.473Z,5.42
2019-05-03T02:00:25.234Z,5.40
2019-05-03T02:03:04.297Z,5.22
2019-05-03T02:05:48.037Z,4.99
2019-05-03T02:08:16.328Z,4.89
2019-05-03T02:10:44.901Z,4.97
2019-05-03T02:13:13.061Z,5.10
2019-05-03T02:15:42.226Z,4.99
2019-05-03T02:18:14.866Z,4.91
2019-05-03T02:20:42.003Z,4.93
2019-05-03T02:23:11.935Z,4.93
2019-05-03T02:25:41.883Z,4.80
2019-05-03T02:28:12.494Z,4.64
2019-05-03T02:30:44.085Z,4.73
2019-05-03T02:33:13.400Z,4.78
2019-05-03T02:35:42.995Z,4.64
2019-05-03T02:38:13.208Z,4.77
2019-05-03T02:40:42.844Z,4.71
2019-05-03T02:43:26.176Z,4.66
2019-05-03T02:46:11.945Z,4.85
2019-05-03T02:48:55.653Z,4.88
2019-05-03T02:51:26.036Z,4.84
2019-05-03T02:53:57.182Z,4.74
2019-05-03T02:56:25.965Z,4.78
2019-05-03T02:58:55.731Z,4.73
2019-05-03T03:01:26.382Z,4.72
2019-05-03T03:03:56.478Z,4.75
2019-05-03T03:06:27.008Z,4.76
2019-05-03T03:08:58.194Z,4.74
2019-05-03T03:11:29.586Z,4.76
2019-05-03T03:14:01.431Z,4.68
2019-05-03T03:16:35.925Z,4.72
2019-05-03T03:19:06.606Z,4.63
2019-05-03T03:21:39.546Z,4.67
2019-05-03T03:24:16.780Z,4.71
2019-05-03T03:26:50.428Z,4.58
2019-05-03T03:29:25.767Z,4.60
2019-05-03T03:32:22.478Z,4.60
2019-05-03T03:35:20.898Z,4.63
2019-05-03T03:37:46.392Z,4.80
2019-05-03T03:40:17.858Z,4.67
2019-05-03T03:42:49.568Z,4.78
2019-05-03T03:45:17.826Z,4.80
2019-05-03T03:47:52.560Z,4.82
2019-05-03T03:50:25.964Z,4.83
2019-05-03T03:52:59.245Z,4.73
2019-05-03T03:55:30.911Z,4.68
2019-05-03T03:57:59.427Z,4.66
2019-05-03T04:00:27.738Z,4.78
2019-05-03T04:02:56.454Z,4.75
2019-05-03T04:05:25.664Z,4.83
2019-05-03T04:07:56.041Z,4.84
2019-05-03T04:10:26.149Z,4.85
2019-05-03T04:12:56.188Z,4.83
2019-05-03T04:15:38.517Z,4.84
2019-05-03T04:18:16.987Z,4.80
2019-05-03T04:20:45.966Z,4.77
2019-05-03T04:23:16.217Z,4.63
2019-05-03T04:25:45.202Z,4.81
2019-05-03T04:28:15.958Z,4.73
2019-05-03T04:30:46.039Z,4.66
2019-05-03T04:33:15.990Z,4.69
2019-05-03T04:35:46.565Z,4.70
2019-05-03T04:38:16.272Z,4.77
2019-05-03T04:40:45.330Z,4.71
2019-05-03T04:43:16.263Z,4.68
2019-05-03T04:45:47.369Z,4.72
2019-05-03T04:48:16.218Z,4.74
2019-05-03T04:50:45.686Z,4.76
2019-05-03T04:53:16.195Z,4.93
2019-05-03T04:55:46.638Z,4.96
2019-05-03T04:58:16.107Z,4.97
2019-05-03T05:00:46.475Z,5.00
2019-05-03T05:03:15.314Z,5.25
2019-05-03T05:05:45.264Z,5.29
2019-05-03T05:08:16.174Z,5.51
2019-05-03T05:10:45.498Z,5.69
2019-05-03T05:13:15.775Z,5.84
2019-05-03T05:15:45.957Z,5.99
2019-05-03T05:18:26.367Z,6.11
2019-05-03T05:21:04.482Z,6.32
2019-05-03T05:23:35.266Z,6.87
2019-05-03T05:26:10.676Z,7.15
2019-05-03T05:28:50.774Z,7.43
2019-05-03T05:31:18.954Z,7.60
2019-05-03T05:33:47.144Z,7.67
2019-05-03T05:36:15.461Z,8.00
2019-05-03T05:38:45.073Z,8.06
2019-05-03T05:41:15.598Z,8.21
2019-05-03T05:43:44.993Z,8.64
2019-05-03T05:46:14.639Z,8.01
2019-05-03T05:48:48.938Z,7.54
2019-05-03T05:51:17.176Z,7.51
2019-05-03T05:53:45.376Z,7.55
2019-05-03T05:56:32.910Z,7.30
2019-05-03T05:59:09.795Z,7.11
2019-05-03T06:01:45.612Z,6.96
2019-05-03T06:04:15.470Z,7.08
2019-05-03T06:07:21.636Z,7.58
2019-05-03T06:10:08.283Z,8.10
2019-05-03T06:12:45.327Z,8.19
2019-05-03T06:15:35.268Z,8.47
2019-05-03T06:18:07.068Z,8.41
2019-05-03T06:20:50.235Z,8.64
2019-05-03T06:23:29.153Z,8.89
2019-05-03T06:25:58.858Z,9.30
2019-05-03T06:28:31.124Z,9.19
2019-05-03T06:31:22.780Z,9.46
2019-05-03T06:33:52.551Z,9.52
2019-05-03T06:36:20.995Z,9.84
2019-05-03T06:38:49.239Z,10.22
2019-05-03T06:41:17.975Z,10.06
2019-05-03T06:43:48.742Z,10.38
2019-05-03T06:46:22.944Z,9.59
2019-05-03T06:48:48.824Z,9.57
2019-05-03T06:51:19.997Z,9.50
2019-05-03T06:53:50.520Z,9.56
2019-05-03T06:56:19.389Z,9.37
2019-05-03T06:58:47.842Z,9.18
2019-05-03T07:01:31.701Z,9.63
2019-05-03T07:04:19.475Z,9.24
2019-05-03T07:07:07.311Z,9.68
2019-05-03T07:09:55.059Z,9.64
2019-05-03T07:12:25.045Z,9.55
2019-05-03T07:14:54.885Z,9.88
2019-05-03T07:17:24.875Z,10.26
2019-05-03T07:19:54.674Z,9.72
2019-05-03T07:22:24.453Z,10.00
2019-05-03T07:24:54.630Z,10.17
2019-05-03T07:27:24.766Z,9.98
2019-05-03T07:29:53.167Z,10.00
2019-05-03T07:32:21.688Z,9.80
2019-05-03T07:34:49.835Z,10.16
2019-05-03T07:37:18.851Z,9.75
2019-05-03T07:39:47.490Z,10.12
2019-05-03T07:42:15.870Z,10.07
2019-05-03T07:44:45.028Z,9.59
2019-05-03T07:47:14.869Z,9.70
2019-05-03T07:49:44.752Z,9.29
2019-05-03T07:52:14.753Z,9.37
2019-05-03T07:54:45.119Z,9.63
2019-05-03T07:57:32.005Z,9.29
2019-05-03T08:00:00.169Z,9.38
2019-05-03T08:02:29.122Z,9.16
2019-05-03T08:04:57.297Z,9.73
2019-05-03T08:07:26.939Z,9.52
2019-05-03T08:09:55.717Z,9.89
2019-05-03T08:12:24.709Z,10.26
2019-05-03T08:14:55.225Z,10.48
2019-05-03T08:17:25.364Z,10.37
2019-05-03T08:19:55.243Z,10.28
2019-05-03T08:22:25.625Z,10.28
2019-05-03T08:24:55.487Z,10.71
2019-05-03T08:27:25.100Z,11.52
2019-05-03T08:29:55.551Z,11.42
2019-05-03T08:32:46.261Z,10.90
2019-05-03T08:35:35.574Z,10.89
2019-05-03T08:38:04.984Z,10.13
2019-05-03T08:40:38.994Z,9.92
2019-05-03T08:43:07.182Z,8.46
2019-05-03T08:45:36.276Z,8.42
2019-05-03T08:48:05.515Z,8.21
2019-05-03T08:50:34.767Z,8.45
2019-05-03T08:53:05.100Z,8.75
2019-05-03T08:55:35.038Z,9.49
2019-05-03T08:58:05.218Z,9.42
2019-05-03T09:00:36.831Z,9.84
2019-05-03T09:03:05.360Z,9.38
2019-05-03T09:05:35.962Z,9.44
2019-05-03T09:08:05.662Z,9.83
2019-05-03T09:11:00.255Z,9.65
2019-05-03T09:13:45.054Z,9.81
2019-05-03T09:16:14.761Z,10.81
2019-05-03T09:18:45.361Z,11.05
2019-05-03T09:21:14.808Z,10.50
2019-05-03T09:23:45.006Z,9.59
2019-05-03T09:26:15.128Z,8.97
2019-05-03T09:28:45.393Z,8.29
2019-05-03T09:31:15.559Z,8.32
2019-05-03T09:33:45.099Z,8.13
2019-05-03T09:36:14.670Z,8.07
2019-05-03T09:38:43.028Z,9.03
2019-05-03T09:41:11.656Z,9.38
2019-05-03T09:43:40.229Z,10.05
2019-05-03T09:46:08.494Z,10.98
2019-05-03T09:48:36.982Z,10.95
2019-05-03T09:51:05.290Z,10.89
2019-05-03T09:53:39.739Z,10.90
2019-05-03T09:56:08.067Z,11.14
2019-05-03T09:58:38.124Z,11.09
2019-05-03T10:01:08.600Z,10.55
2019-05-03T10:03:36.949Z,10.04
2019-05-03T10:06:05.257Z,9.77
2019-05-03T10:08:35.854Z,10.27
2019-05-03T10:11:09.856Z,10.30
2019-05-03T10:13:41.635Z,10.23
2019-05-03T10:16:09.197Z,10.00
2019-05-03T10:18:38.033Z,10.43
2019-05-03T10:21:06.659Z,10.94
2019-05-03T10:23:40.887Z,11.37
2019-05-03T10:26:10.910Z,11.53
2019-05-03T10:28:39.075Z,11.59
2019-05-03T10:31:08.072Z,10.75
2019-05-03T10:33:56.426Z,11.43
2019-05-03T10:36:25.082Z,12.26
2019-05-03T10:38:55.420Z,11.91
2019-05-03T10:41:25.081Z,11.96
2019-05-03T10:43:55.682Z,12.06
2019-05-03T10:46:25.082Z,11.56
2019-05-03T10:48:55.611Z,11.92
2019-05-03T10:51:26.405Z,11.82
2019-05-03T10:53:58.217Z,11.19
2019-05-03T10:56:35.777Z,10.92
2019-05-03T10:59:06.390Z,10.16
2019-05-03T11:02:00.114Z,10.30
2019-05-03T11:04:29.849Z,10.57
2019-05-03T11:06:58.076Z,10.83
2019-05-03T11:09:26.708Z,11.54
2019-05-03T11:11:55.692Z,11.74
2019-05-03T11:14:25.354Z,11.76
2019-05-03T11:16:55.264Z,12.13
2019-05-03T11:19:25.439Z,12.65
2019-05-03T11:21:54.784Z,12.53
2019-05-03T11:24:27.184Z,12.52
2019-05-03T11:26:56.011Z,11.89
2019-05-03T11:29:24.777Z,10.97
2019-05-03T11:32:19.361Z,10.64
2019-05-03T11:35:05.267Z,10.31
2019-05-03T11:37:41.931Z,9.54
2019-05-03T11:40:10.399Z,9.26
2019-05-03T11:42:38.879Z,9.21
2019-05-03T11:45:08.620Z,9.14
2019-05-03T11:47:36.746Z,9.22
2019-05-03T11:50:05.713Z,9.39
2019-05-03T11:52:35.539Z,9.38
2019-05-03T11:55:11.474Z,9.11
2019-05-03T11:57:36.327Z,9.35
2019-05-03T12:00:06.829Z,9.72
2019-05-03T12:02:55.456Z,9.90
2019-05-03T12:05:25.899Z,10.02
2019-05-03T12:07:54.729Z,10.28
2019-05-03T12:10:36.532Z,10.67
2019-05-03T12:13:01.559Z,10.79
2019-05-03T12:15:30.744Z,10.46
2019-05-03T12:18:05.809Z,10.13
2019-05-03T12:20:36.702Z,10.47
2019-05-03T12:23:06.095Z,10.78
2019-05-03T12:25:36.151Z,10.81
2019-05-03T12:28:05.893Z,11.04
2019-05-03T12:30:35.517Z,11.30
2019-05-03T12:33:06.043Z,12.02
2019-05-03T12:35:35.747Z,12.64
2019-05-03T12:38:05.460Z,12.26
2019-05-03T12:40:35.034Z,12.41
2019-05-03T12:43:06.021Z,12.03
2019-05-03T12:45:44.535Z,11.72
2019-05-03T12:48:12.712Z,11.36
2019-05-03T12:50:49.486Z,10.91
2019-05-03T12:53:17.999Z,10.83
2019-05-03T12:55:46.178Z,10.58
2019-05-03T12:58:15.093Z,10.21
2019-05-03T13:01:01.757Z,10.33
2019-05-03T13:03:37.870Z,10.33
2019-05-03T13:06:07.480Z,10.85
2019-05-03T13:08:39.692Z,11.39
2019-05-03T13:11:08.216Z,11.33
2019-05-03T13:13:36.654Z,11.60
2019-05-03T13:16:05.518Z,11.90
2019-05-03T13:18:35.208Z,12.00
2019-05-03T13:21:05.907Z,11.90
2019-05-03T13:23:35.477Z,11.61
2019-05-03T13:26:05.614Z,11.38
2019-05-03T13:28:34.517Z,10.93
2019-05-03T13:31:05.430Z,10.66
2019-05-03T13:33:34.825Z,10.58
2019-05-03T13:36:04.483Z,10.25
2019-05-03T13:38:34.672Z,10.07
2019-05-03T13:41:03.288Z,9.92
2019-05-03T13:43:31.637Z,9.81
2019-05-03T13:45:59.883Z,9.92
2019-05-03T13:48:41.743Z,10.32
2019-05-03T13:50:59.029Z,10.69
2019-05-03T13:53:27.160Z,11.04
2019-05-03T13:55:55.539Z,10.87
2019-05-03T13:58:26.190Z,11.25
2019-05-03T14:00:55.137Z,10.82
2019-05-03T14:03:23.487Z,11.35
2019-05-03T14:05:51.913Z,11.26
2019-05-03T14:08:20.906Z,11.42
2019-05-03T14:10:49.144Z,11.74
2019-05-03T14:13:17.917Z,11.70
2019-05-03T14:15:46.522Z,11.88
2019-05-03T14:18:15.516Z,11.88
2019-05-03T14:21:09.334Z,11.86
2019-05-03T14:23:56.544Z,11.53
2019-05-03T14:26:24.791Z,11.62
2019-05-03T14:28:54.831Z,11.50
2019-05-03T14:31:25.161Z,11.15
2019-05-03T14:33:55.621Z,11.48
2019-05-03T14:36:25.078Z,11.52
2019-05-03T14:38:54.864Z,11.20
2019-05-03T14:41:25.318Z,10.98
2019-05-03T14:43:55.688Z,11.41
2019-05-03T14:46:32.653Z,11.68
2019-05-03T14:48:54.989Z,11.55
2019-05-03T14:51:25.213Z,11.39
2019-05-03T14:53:54.292Z,11.48
2019-05-03T14:56:52.886Z,11.01
2019-05-03T14:59:39.413Z,11.24
2019-05-03T15:02:21.857Z,10.91
2019-05-03T15:04:50.207Z,11.14
2019-05-03T15:07:18.448Z,11.50
2019-05-03T15:09:46.941Z,11.41
2019-05-03T15:12:15.118Z,11.19
2019-05-03T15:14:45.163Z,11.09
2019-05-03T15:17:13.908Z,11.27
2019-05-03T15:19:42.083Z,11.21
2019-05-03T15:22:12.184Z,11.58
2019-05-03T15:24:41.468Z,11.28
2019-05-03T15:27:09.898Z,11.59
2019-05-03T15:29:56.898Z,11.19
2019-05-03T15:32:25.898Z,11.07
2019-05-03T15:34:55.354Z,11.01
2019-05-03T15:37:25.425Z,10.90
2019-05-03T15:39:55.271Z,10.84
2019-05-03T15:42:24.636Z,10.92
2019-05-03T15:45:14.606Z,11.19
2019-05-03T15:48:04.491Z,11.14
2019-05-03T15:50:33.197Z,10.96
2019-05-03T15:53:01.952Z,10.92
2019-05-03T15:55:30.272Z,10.68
2019-05-03T15:57:58.616Z,10.73
2019-05-03T16:00:27.056Z,10.81
2019-05-03T16:02:58.464Z,10.74
2019-05-03T16:05:25.561Z,10.87
2019-05-03T16:07:55.277Z,10.67
2019-05-03T16:10:24.895Z,10.64
2019-05-03T16:12:54.539Z,10.58
2019-05-03T16:15:24.625Z,10.51
2019-05-03T16:17:54.802Z,10.46
2019-05-03T16:20:25.044Z,10.64
2019-05-03T16:22:54.466Z,10.55
2019-05-03T16:25:25.080Z,10.67
2019-05-03T16:28:08.167Z,10.48
2019-05-03T16:30:42.983Z,10.25
2019-05-03T16:33:23.968Z,10.34
2019-05-03T16:35:44.385Z,10.28
2019-05-03T16:38:12.590Z,10.16
2019-05-03T16:40:41.345Z,10.06
2019-05-03T16:43:09.503Z,10.16
2019-05-03T16:45:37.692Z,9.85
2019-05-03T16:48:05.822Z,9.83
2019-05-03T16:50:34.530Z,9.75
2019-05-03T16:53:05.549Z,9.69
2019-05-03T16:55:35.194Z,9.83
2019-05-03T16:58:03.535Z,9.84
2019-05-03T17:00:31.708Z,9.98
2019-05-03T17:02:59.951Z,9.91
2019-05-03T17:06:00.135Z,9.84
2019-05-03T17:08:47.041Z,9.85
2019-05-03T17:11:17.743Z,9.78
2019-05-03T17:13:47.961Z,9.72
2019-05-03T17:16:16.116Z,9.65
2019-05-03T17:18:44.709Z,9.49
2019-05-03T17:21:14.614Z,9.48
2019-05-03T17:23:44.640Z,9.31
2019-05-03T17:26:14.890Z,9.27
2019-05-03T17:28:44.765Z,9.40
2019-05-03T17:31:13.789Z,9.32
2019-05-03T17:37:45.082Z,9.46
2019-05-03T17:40:45.250Z,9.30
2019-05-03T17:43:25.371Z,9.53
2019-05-03T17:45:55.555Z,9.51
2019-05-03T17:48:23.962Z,9.41
2019-05-03T17:50:52.435Z,9.23
2019-05-03T17:53:28.718Z,9.34
2019-05-03T17:56:19.600Z,9.13
2019-05-03T17:59:10.560Z,9.05
2019-05-03T18:01:57.987Z,8.93
2019-05-03T18:04:57.606Z,8.98
2019-05-03T18:07:37.935Z,8.87
2019-05-03T18:10:07.012Z,8.77
2019-05-03T18:12:35.225Z,8.79
2019-05-03T18:15:11.046Z,8.77
2019-05-03T18:17:39.825Z,8.73
2019-05-03T18:20:08.167Z,8.59
2019-05-03T18:22:36.367Z,8.50
2019-05-03T18:25:05.092Z,8.40
2019-05-03T18:27:35.243Z,8.19
2019-05-03T18:30:04.818Z,8.24
2019-05-03T18:32:34.432Z,8.06
2019-05-03T18:35:04.874Z,8.13
2019-05-03T18:37:34.852Z,7.84
2019-05-03T18:40:04.976Z,7.94
2019-05-03T18:42:39.467Z,7.96
2019-05-03T18:45:15.123Z,7.99
2019-05-03T18:47:45.015Z,7.90
2019-05-03T18:50:13.367Z,7.95
2019-05-03T18:52:41.506Z,7.87
2019-05-03T18:55:09.873Z,7.75
2019-05-03T18:57:38.061Z,7.70
2019-05-03T19:00:08.218Z,7.65
2019-05-03T19:02:36.551Z,7.50
2019-05-03T19:05:05.802Z,7.40
2019-05-03T19:07:54.557Z,7.30
2019-05-03T19:10:28.490Z,7.29
2019-05-03T19:13:04.683Z,7.21
2019-05-03T19:15:34.601Z,7.10
2019-05-03T19:18:06.891Z,7.06
2019-05-03T19:20:35.391Z,7.04
2019-05-03T19:23:04.956Z,7.14
2019-05-03T19:25:44.056Z,6.95
2019-05-03T19:28:06.026Z,6.99
2019-05-03T19:30:35.283Z,6.84
2019-05-03T19:33:04.361Z,6.86
2019-05-03T19:35:32.955Z,6.93
2019-05-03T19:38:01.388Z,6.95
2019-05-03T19:40:29.780Z,6.90
2019-05-03T19:42:58.197Z,6.88
2019-05-03T19:45:26.599Z,6.82
2019-05-03T19:47:55.175Z,6.77
2019-05-03T19:50:26.959Z,6.83
2019-05-03T19:53:05.339Z,6.76
2019-05-03T19:55:33.506Z,6.77
2019-05-03T19:58:02.011Z,6.77
2019-05-03T20:00:45.853Z,6.78
2019-05-03T20:03:18.330Z,6.80
2019-05-03T20:06:01.407Z,6.71
2019-05-03T20:08:38.930Z,6.69
2019-05-03T20:11:17.017Z,6.71
2019-05-03T20:13:45.830Z,6.73
2019-05-03T20:16:15.444Z,6.61
2019-05-03T20:18:45.375Z,6.70
2019-05-03T20:21:14.990Z,6.72
2019-05-03T20:23:46.703Z,6.74
2019-05-03T20:26:14.895Z,6.75
2019-05-03T20:28:44.830Z,6.62
2019-05-03T20:31:14.330Z,6.66
2019-05-03T20:33:42.824Z,6.56
2019-05-03T20:36:10.924Z,6.64
2019-05-03T20:38:39.130Z,6.60
2019-05-03T20:41:07.759Z,6.60
2019-05-03T20:44:01.552Z,6.58
2019-05-03T20:46:33.848Z,6.57
2019-05-03T20:49:05.115Z,6.61
2019-05-03T20:51:34.574Z,6.39
2019-05-03T20:54:04.831Z,6.49
2019-05-03T20:56:33.593Z,6.49
2019-05-03T20:59:02.059Z,6.47
2019-05-03T21:01:30.501Z,6.45
2019-05-03T21:04:00.801Z,6.34
2019-05-03T21:06:35.414Z,6.45
2019-05-03T21:09:01.854Z,6.52
2019-05-03T21:11:31.305Z,6.46
2019-05-03T21:14:01.257Z,6.57
2019-05-03T21:16:52.196Z,6.50
2019-05-03T21:19:30.860Z,6.43
2019-05-03T21:22:08.150Z,6.42
2019-05-03T21:25:02.116Z,6.31
2019-05-03T21:27:30.231Z,6.44
2019-05-03T21:29:58.601Z,6.37
2019-05-03T21:32:27.045Z,6.38
2019-05-03T21:34:56.269Z,6.15
2019-05-03T21:37:24.524Z,6.19
2019-05-03T21:39:54.785Z,6.24
2019-05-03T21:42:25.232Z,6.21
2019-05-03T21:44:55.678Z,6.17
2019-05-03T21:47:55.707Z,6.21
2019-05-03T21:50:25.055Z,6.16
2019-05-03T21:52:57.669Z,6.15
2019-05-03T21:55:26.050Z,6.06
2019-05-03T21:57:55.305Z,6.04
2019-05-03T22:00:26.911Z,6.05
2019-05-03T22:02:56.746Z,6.07
2019-05-03T22:05:26.481Z,6.06
2019-05-03T22:07:56.676Z,6.04
2019-05-03T22:10:25.538Z,5.96
2019-05-03T22:12:55.089Z,6.02
2019-05-03T22:15:44.641Z,5.94
2019-05-03T22:18:22.151Z,5.97
2019-05-03T22:21:09.112Z,5.95
2019-05-03T22:23:57.265Z,5.92
2019-05-03T22:26:45.233Z,5.80
2019-05-03T22:29:14.396Z,5.79
2019-05-03T22:31:45.299Z,5.73
2019-05-03T22:34:15.057Z,5.81
2019-05-03T22:36:44.374Z,5.81
2019-05-03T22:39:12.998Z,5.74
2019-05-03T22:41:41.359Z,5.81
2019-05-03T22:44:10.151Z,5.83
2019-05-03T22:46:39.264Z,5.83
2019-05-03T22:49:09.587Z,5.83
2019-05-03T22:51:38.161Z,5.78
2019-05-03T22:54:06.604Z,5.73
2019-05-03T22:56:35.627Z,5.77
2019-05-03T22:59:05.512Z,5.72
2019-05-03T23:01:35.186Z,5.74
2019-05-03T23:04:05.457Z,5.67
2019-05-03T23:06:33.748Z,5.67
2019-05-03T23:09:01.908Z,5.63
2019-05-03T23:11:30.567Z,5.59
2019-05-03T23:14:01.446Z,5.61
2019-05-03T23:16:35.405Z,5.58
2019-05-03T23:19:05.327Z,5.64
2019-05-03T23:22:04.659Z,5.58
2019-05-03T23:24:32.889Z,5.53
2019-05-03T23:27:01.254Z,5.57
2019-05-03T23:29:29.405Z,5.60
2019-05-03T23:31:57.503Z,5.50
2019-05-03T23:34:25.952Z,5.59
2019-05-03T23:36:54.776Z,5.51
2019-05-03T23:39:24.934Z,5.36
2019-05-03T23:41:55.565Z,5.51
2019-05-03T23:44:24.480Z,5.41
2019-05-03T23:47:18.211Z,5.53
2019-05-03T23:49:46.691Z,-141.48
2019-05-03T23:52:35.419Z,-141.48
2019-05-03T23:55:14.783Z,-141.48
2019-05-03T23:57:44.647Z,-141.48
